sensor_id;sensor_type;location;lat;lon;timestamp;P1;durP1;ratioP1;P2;durP2;ratioP2
45620;SDS011;31345;51.522;10.702;2023-11-21T00:02:00;12.93;;;4.10;;
45620;SDS011;31345;51.522;10.702;2023-11-21T00:04:30;5.72;;;3.33;;
45620;SDS011;31345;51.522;10.702;2023-11-21T00:07:03;6.63;;;2.90;;
45620;SDS011;31345;51.522;10.702;2023-11-21T00:09:31;4.83;;;3.13;;
45620;SDS011;31345;51.522;10.702;2023-11-21T00:12:04;7.43;;;3.30;;
45620;SDS011;31345;51.522;10.702;2023-11-21T00:14:40;7.17;;;3.30;;
45620;SDS011;31345;51.522;10.702;2023-11-21T00:17:09;6.10;;;3.20;;
45620;SDS011;31345;51.522;10.702;2023-11-21T00:19:37;6.93;;;3.47;;
45620;SDS011;31345;51.522;10.702;2023-11-21T00:22:04;9.93;;;4.77;;
45620;SDS011;31345;51.522;10.702;2023-11-21T00:24:33;6.17;;;3.60;;
45620;SDS011;31345;51.522;10.702;2023-11-21T00:27:05;7.53;;;3.67;;
45620;SDS011;31345;51.522;10.702;2023-11-21T00:29:33;6.83;;;3.27;;
45620;SDS011;31345;51.522;10.702;2023-11-21T00:32:00;7.67;;;3.30;;
45620;SDS011;31345;51.522;10.702;2023-11-21T00:34:30;5.87;;;3.20;;
45620;SDS011;31345;51.522;10.702;2023-11-21T00:37:02;8.67;;;3.70;;
45620;SDS011;31345;51.522;10.702;2023-11-21T00:39:35;10.57;;;4.40;;
45620;SDS011;31345;51.522;10.702;2023-11-21T00:42:08;6.23;;;3.23;;
45620;SDS011;31345;51.522;10.702;2023-11-21T00:44:37;6.77;;;3.43;;
45620;SDS011;31345;51.522;10.702;2023-11-21T00:47:10;7.73;;;3.67;;
45620;SDS011;31345;51.522;10.702;2023-11-21T00:49:43;8.43;;;3.47;;
45620;SDS011;31345;51.522;10.702;2023-11-21T00:52:11;6.40;;;3.93;;
45620;SDS011;31345;51.522;10.702;2023-11-21T00:54:44;11.43;;;4.27;;
45620;SDS011;31345;51.522;10.702;2023-11-21T00:57:17;8.23;;;3.80;;
45620;SDS011;31345;51.522;10.702;2023-11-21T00:59:49;5.73;;;3.57;;
45620;SDS011;31345;51.522;10.702;2023-11-21T01:02:17;6.40;;;3.10;;
45620;SDS011;31345;51.522;10.702;2023-11-21T01:04:46;7.27;;;3.90;;
45620;SDS011;31345;51.522;10.702;2023-11-21T01:07:14;6.70;;;3.40;;
45620;SDS011;31345;51.522;10.702;2023-11-21T01:09:42;6.93;;;4.37;;
45620;SDS011;31345;51.522;10.702;2023-11-21T01:12:15;6.63;;;4.13;;
45620;SDS011;31345;51.522;10.702;2023-11-21T01:14:43;5.80;;;3.30;;
45620;SDS011;31345;51.522;10.702;2023-11-21T01:17:16;7.73;;;2.80;;
45620;SDS011;31345;51.522;10.702;2023-11-21T01:19:51;5.43;;;3.30;;
45620;SDS011;31345;51.522;10.702;2023-11-21T01:22:18;6.30;;;3.47;;
45620;SDS011;31345;51.522;10.702;2023-11-21T01:24:56;7.93;;;3.23;;
45620;SDS011;31345;51.522;10.702;2023-11-21T01:27:29;6.13;;;4.10;;
45620;SDS011;31345;51.522;10.702;2023-11-21T01:29:56;6.23;;;3.77;;
45620;SDS011;31345;51.522;10.702;2023-11-21T01:32:24;6.60;;;4.00;;
45620;SDS011;31345;51.522;10.702;2023-11-21T01:34:53;8.00;;;4.30;;
45620;SDS011;31345;51.522;10.702;2023-11-21T01:37:21;6.30;;;4.13;;
45620;SDS011;31345;51.522;10.702;2023-11-21T01:39:53;8.00;;;3.97;;
45620;SDS011;31345;51.522;10.702;2023-11-21T01:42:26;8.17;;;4.20;;
45620;SDS011;31345;51.522;10.702;2023-11-21T01:44:55;8.10;;;4.33;;
45620;SDS011;31345;51.522;10.702;2023-11-21T01:47:22;10.73;;;4.77;;
45620;SDS011;31345;51.522;10.702;2023-11-21T01:49:57;8.43;;;4.00;;
45620;SDS011;31345;51.522;10.702;2023-11-21T01:52:25;7.77;;;3.93;;
45620;SDS011;31345;51.522;10.702;2023-11-21T01:54:55;6.70;;;3.93;;
45620;SDS011;31345;51.522;10.702;2023-11-21T01:57:28;7.70;;;3.83;;
45620;SDS011;31345;51.522;10.702;2023-11-21T01:59:56;6.97;;;3.60;;
45620;SDS011;31345;51.522;10.702;2023-11-21T02:02:38;8.17;;;3.90;;
45620;SDS011;31345;51.522;10.702;2023-11-21T02:05:06;7.70;;;3.40;;
45620;SDS011;31345;51.522;10.702;2023-11-21T02:07:40;6.63;;;4.10;;
45620;SDS011;31345;51.522;10.702;2023-11-21T02:10:09;5.97;;;3.43;;
45620;SDS011;31345;51.522;10.702;2023-11-21T02:12:45;7.33;;;3.50;;
45620;SDS011;31345;51.522;10.702;2023-11-21T02:15:18;9.33;;;3.73;;
45620;SDS011;31345;51.522;10.702;2023-11-21T02:17:47;6.40;;;3.90;;
45620;SDS011;31345;51.522;10.702;2023-11-21T02:20:23;9.67;;;4.20;;
45620;SDS011;31345;51.522;10.702;2023-11-21T02:22:58;8.07;;;3.57;;
45620;SDS011;31345;51.522;10.702;2023-11-21T02:25:26;7.23;;;3.70;;
45620;SDS011;31345;51.522;10.702;2023-11-21T02:27:56;6.33;;;3.80;;
45620;SDS011;31345;51.522;10.702;2023-11-21T02:30:24;5.67;;;3.53;;
45620;SDS011;31345;51.522;10.702;2023-11-21T02:32:53;5.07;;;3.30;;
45620;SDS011;31345;51.522;10.702;2023-11-21T02:35:23;5.87;;;3.73;;
45620;SDS011;31345;51.522;10.702;2023-11-21T02:37:57;7.57;;;3.80;;
45620;SDS011;31345;51.522;10.702;2023-11-21T02:40:26;6.57;;;3.53;;
45620;SDS011;31345;51.522;10.702;2023-11-21T02:42:53;6.63;;;3.90;;
45620;SDS011;31345;51.522;10.702;2023-11-21T02:45:21;8.47;;;3.33;;
45620;SDS011;31345;51.522;10.702;2023-11-21T02:47:51;6.87;;;3.53;;
45620;SDS011;31345;51.522;10.702;2023-11-21T02:50:22;4.80;;;3.13;;
45620;SDS011;31345;51.522;10.702;2023-11-21T02:52:51;7.27;;;3.50;;
45620;SDS011;31345;51.522;10.702;2023-11-21T02:55:21;7.13;;;4.00;;
45620;SDS011;31345;51.522;10.702;2023-11-21T02:57:50;8.38;;;3.80;;
45620;SDS011;31345;51.522;10.702;2023-11-21T03:00:18;6.87;;;4.10;;
45620;SDS011;31345;51.522;10.702;2023-11-21T03:02:50;11.60;;;4.57;;
45620;SDS011;31345;51.522;10.702;2023-11-21T03:05:18;7.17;;;4.20;;
45620;SDS011;31345;51.522;10.702;2023-11-21T03:07:50;8.53;;;4.07;;
45620;SDS011;31345;51.522;10.702;2023-11-21T03:10:19;7.13;;;4.20;;
45620;SDS011;31345;51.522;10.702;2023-11-21T03:12:48;7.00;;;4.47;;
45620;SDS011;31345;51.522;10.702;2023-11-21T03:15:15;6.27;;;3.93;;
45620;SDS011;31345;51.522;10.702;2023-11-21T03:17:43;8.90;;;4.47;;
45620;SDS011;31345;51.522;10.702;2023-11-21T03:20:11;6.13;;;4.00;;
45620;SDS011;31345;51.522;10.702;2023-11-21T03:22:39;8.83;;;4.57;;
45620;SDS011;31345;51.522;10.702;2023-11-21T03:25:07;9.00;;;4.40;;
45620;SDS011;31345;51.522;10.702;2023-11-21T03:27:37;11.00;;;4.67;;
45620;SDS011;31345;51.522;10.702;2023-11-21T03:30:08;8.47;;;3.93;;
45620;SDS011;31345;51.522;10.702;2023-11-21T03:32:37;6.68;;;3.50;;
45620;SDS011;31345;51.522;10.702;2023-11-21T03:35:04;8.27;;;3.83;;
45620;SDS011;31345;51.522;10.702;2023-11-21T03:37:32;7.53;;;3.93;;
45620;SDS011;31345;51.522;10.702;2023-11-21T03:40:01;9.50;;;3.63;;
45620;SDS011;31345;51.522;10.702;2023-11-21T03:42:35;10.03;;;4.03;;
45620;SDS011;31345;51.522;10.702;2023-11-21T03:45:09;8.17;;;4.03;;
45620;SDS011;31345;51.522;10.702;2023-11-21T03:47:43;7.07;;;4.07;;
45620;SDS011;31345;51.522;10.702;2023-11-21T03:50:16;7.97;;;4.63;;
45620;SDS011;31345;51.522;10.702;2023-11-21T03:52:49;5.63;;;3.63;;
45620;SDS011;31345;51.522;10.702;2023-11-21T03:55:16;10.07;;;5.10;;
45620;SDS011;31345;51.522;10.702;2023-11-21T03:57:45;8.87;;;4.20;;
45620;SDS011;31345;51.522;10.702;2023-11-21T04:00:14;8.13;;;4.37;;
45620;SDS011;31345;51.522;10.702;2023-11-21T04:02:43;8.13;;;4.70;;
45620;SDS011;31345;51.522;10.702;2023-11-21T04:05:10;6.70;;;4.20;;
45620;SDS011;31345;51.522;10.702;2023-11-21T04:07:38;6.50;;;4.30;;
45620;SDS011;31345;51.522;10.702;2023-11-21T04:10:10;10.17;;;4.23;;
45620;SDS011;31345;51.522;10.702;2023-11-21T04:12:39;9.07;;;4.40;;
45620;SDS011;31345;51.522;10.702;2023-11-21T04:15:07;16.10;;;5.00;;
45620;SDS011;31345;51.522;10.702;2023-11-21T04:17:42;10.90;;;4.67;;
45620;SDS011;31345;51.522;10.702;2023-11-21T04:20:16;7.30;;;3.83;;
45620;SDS011;31345;51.522;10.702;2023-11-21T04:22:49;7.97;;;4.03;;
45620;SDS011;31345;51.522;10.702;2023-11-21T04:25:21;8.70;;;5.13;;
45620;SDS011;31345;51.522;10.702;2023-11-21T04:27:50;7.53;;;5.37;;
45620;SDS011;31345;51.522;10.702;2023-11-21T04:30:17;8.77;;;4.50;;
45620;SDS011;31345;51.522;10.702;2023-11-21T04:32:51;10.13;;;4.97;;
45620;SDS011;31345;51.522;10.702;2023-11-21T04:35:19;8.23;;;5.00;;
45620;SDS011;31345;51.522;10.702;2023-11-21T04:37:46;10.13;;;4.80;;
45620;SDS011;31345;51.522;10.702;2023-11-21T04:40:19;8.27;;;4.67;;
45620;SDS011;31345;51.522;10.702;2023-11-21T04:42:47;9.07;;;5.40;;
45620;SDS011;31345;51.522;10.702;2023-11-21T04:45:19;9.87;;;5.77;;
45620;SDS011;31345;51.522;10.702;2023-11-21T04:47:47;9.43;;;5.87;;
45620;SDS011;31345;51.522;10.702;2023-11-21T04:50:16;7.93;;;4.97;;
45620;SDS011;31345;51.522;10.702;2023-11-21T04:52:44;10.80;;;5.50;;
45620;SDS011;31345;51.522;10.702;2023-11-21T04:55:16;10.13;;;4.93;;
45620;SDS011;31345;51.522;10.702;2023-11-21T04:57:44;9.70;;;5.60;;
45620;SDS011;31345;51.522;10.702;2023-11-21T05:00:18;11.03;;;5.37;;
45620;SDS011;31345;51.522;10.702;2023-11-21T05:02:52;8.40;;;5.47;;
45620;SDS011;31345;51.522;10.702;2023-11-21T05:05:21;12.93;;;6.60;;
45620;SDS011;31345;51.522;10.702;2023-11-21T05:07:53;10.87;;;5.93;;
45620;SDS011;31345;51.522;10.702;2023-11-21T05:10:21;11.17;;;6.60;;
45620;SDS011;31345;51.522;10.702;2023-11-21T05:12:54;10.43;;;5.90;;
45620;SDS011;31345;51.522;10.702;2023-11-21T05:15:22;10.07;;;5.43;;
45620;SDS011;31345;51.522;10.702;2023-11-21T05:17:51;13.13;;;7.03;;
45620;SDS011;31345;51.522;10.702;2023-11-21T05:20:21;13.00;;;7.00;;
45620;SDS011;31345;51.522;10.702;2023-11-21T05:22:49;11.83;;;6.43;;
45620;SDS011;31345;51.522;10.702;2023-11-21T05:25:17;10.47;;;6.00;;
45620;SDS011;31345;51.522;10.702;2023-11-21T05:27:50;10.43;;;6.03;;
45620;SDS011;31345;51.522;10.702;2023-11-21T05:30:17;10.47;;;6.23;;
45620;SDS011;31345;51.522;10.702;2023-11-21T05:32:45;11.57;;;5.97;;
45620;SDS011;31345;51.522;10.702;2023-11-21T05:35:13;13.67;;;6.70;;
45620;SDS011;31345;51.522;10.702;2023-11-21T05:37:43;15.20;;;6.80;;
45620;SDS011;31345;51.522;10.702;2023-11-21T05:40:11;10.87;;;6.10;;
45620;SDS011;31345;51.522;10.702;2023-11-21T05:42:39;12.73;;;6.97;;
45620;SDS011;31345;51.522;10.702;2023-11-21T05:45:07;10.53;;;6.30;;
45620;SDS011;31345;51.522;10.702;2023-11-21T05:47:36;10.30;;;6.77;;
45620;SDS011;31345;51.522;10.702;2023-11-21T05:50:06;16.90;;;7.43;;
45620;SDS011;31345;51.522;10.702;2023-11-21T05:52:36;12.93;;;6.63;;
45620;SDS011;31345;51.522;10.702;2023-11-21T05:55:05;10.40;;;6.10;;
45620;SDS011;31345;51.522;10.702;2023-11-21T05:57:34;10.37;;;6.17;;
45620;SDS011;31345;51.522;10.702;2023-11-21T06:00:03;10.80;;;7.03;;
45620;SDS011;31345;51.522;10.702;2023-11-21T06:02:37;12.23;;;7.33;;
45620;SDS011;31345;51.522;10.702;2023-11-21T06:05:10;12.80;;;7.03;;
45620;SDS011;31345;51.522;10.702;2023-11-21T06:07:38;11.73;;;6.80;;
45620;SDS011;31345;51.522;10.702;2023-11-21T06:10:08;11.70;;;7.03;;
45620;SDS011;31345;51.522;10.702;2023-11-21T06:12:42;11.60;;;7.17;;
45620;SDS011;31345;51.522;10.702;2023-11-21T06:15:10;14.53;;;6.70;;
45620;SDS011;31345;51.522;10.702;2023-11-21T06:17:39;13.10;;;6.77;;
45620;SDS011;31345;51.522;10.702;2023-11-21T06:20:08;13.20;;;7.17;;
45620;SDS011;31345;51.522;10.702;2023-11-21T06:22:40;11.47;;;6.57;;
45620;SDS011;31345;51.522;10.702;2023-11-21T06:25:10;14.43;;;7.80;;
45620;SDS011;31345;51.522;10.702;2023-11-21T06:27:42;11.90;;;6.73;;
45620;SDS011;31345;51.522;10.702;2023-11-21T06:30:13;11.13;;;7.27;;
45620;SDS011;31345;51.522;10.702;2023-11-21T06:32:42;11.73;;;6.93;;
45620;SDS011;31345;51.522;10.702;2023-11-21T06:35:11;10.87;;;6.07;;
45620;SDS011;31345;51.522;10.702;2023-11-21T06:37:39;14.70;;;7.30;;
45620;SDS011;31345;51.522;10.702;2023-11-21T06:40:07;11.60;;;6.60;;
45620;SDS011;31345;51.522;10.702;2023-11-21T06:42:42;11.37;;;6.67;;
45620;SDS011;31345;51.522;10.702;2023-11-21T06:45:16;11.90;;;7.25;;
45620;SDS011;31345;51.522;10.702;2023-11-21T06:47:44;13.52;;;7.30;;
45620;SDS011;31345;51.522;10.702;2023-11-21T06:50:11;12.02;;;7.38;;
45620;SDS011;31345;51.522;10.702;2023-11-21T06:52:39;17.50;;;8.52;;
45620;SDS011;31345;51.522;10.702;2023-11-21T06:55:07;13.87;;;7.80;;
45620;SDS011;31345;51.522;10.702;2023-11-21T06:57:40;14.63;;;7.97;;
45620;SDS011;31345;51.522;10.702;2023-11-21T07:00:11;11.40;;;6.97;;
45620;SDS011;31345;51.522;10.702;2023-11-21T07:02:39;12.85;;;8.15;;
45620;SDS011;31345;51.522;10.702;2023-11-21T07:05:11;24.42;;;9.73;;
45620;SDS011;31345;51.522;10.702;2023-11-21T07:07:40;16.17;;;8.20;;
45620;SDS011;31345;51.522;10.702;2023-11-21T07:10:12;12.43;;;8.35;;
45620;SDS011;31345;51.522;10.702;2023-11-21T07:12:45;13.32;;;7.75;;
45620;SDS011;31345;51.522;10.702;2023-11-21T07:15:14;13.00;;;8.45;;
45620;SDS011;31345;51.522;10.702;2023-11-21T07:17:47;17.20;;;9.32;;
45620;SDS011;31345;51.522;10.702;2023-11-21T07:20:19;16.58;;;8.70;;
45620;SDS011;31345;51.522;10.702;2023-11-21T07:22:47;19.73;;;10.00;;
45620;SDS011;31345;51.522;10.702;2023-11-21T07:25:15;16.98;;;9.48;;
45620;SDS011;31345;51.522;10.702;2023-11-21T07:27:42;26.85;;;11.98;;
45620;SDS011;31345;51.522;10.702;2023-11-21T07:30:16;27.55;;;13.38;;
45620;SDS011;31345;51.522;10.702;2023-11-21T07:32:44;23.30;;;12.90;;
45620;SDS011;31345;51.522;10.702;2023-11-21T07:35:18;29.80;;;13.35;;
45620;SDS011;31345;51.522;10.702;2023-11-21T07:37:46;28.45;;;14.55;;
45620;SDS011;31345;51.522;10.702;2023-11-21T07:40:14;32.08;;;12.90;;
45620;SDS011;31345;51.522;10.702;2023-11-21T07:42:47;35.47;;;14.38;;
45620;SDS011;31345;51.522;10.702;2023-11-21T07:45:22;28.88;;;13.50;;
45620;SDS011;31345;51.522;10.702;2023-11-21T07:47:55;31.23;;;13.85;;
45620;SDS011;31345;51.522;10.702;2023-11-21T07:50:27;30.25;;;14.20;;
45620;SDS011;31345;51.522;10.702;2023-11-21T07:52:55;28.30;;;14.13;;
45620;SDS011;31345;51.522;10.702;2023-11-21T07:55:23;38.03;;;16.52;;
45620;SDS011;31345;51.522;10.702;2023-11-21T07:57:50;37.28;;;15.77;;
45620;SDS011;31345;51.522;10.702;2023-11-21T08:00:25;36.13;;;16.67;;
45620;SDS011;31345;51.522;10.702;2023-11-21T08:02:56;45.95;;;16.70;;
45620;SDS011;31345;51.522;10.702;2023-11-21T08:05:23;38.30;;;15.80;;
45620;SDS011;31345;51.522;10.702;2023-11-21T08:07:56;35.35;;;15.93;;
45620;SDS011;31345;51.522;10.702;2023-11-21T08:10:24;35.08;;;17.17;;
45620;SDS011;31345;51.522;10.702;2023-11-21T08:12:57;33.00;;;17.10;;
45620;SDS011;31345;51.522;10.702;2023-11-21T08:15:28;38.10;;;17.50;;
45620;SDS011;31345;51.522;10.702;2023-11-21T08:18:00;44.22;;;20.95;;
45620;SDS011;31345;51.522;10.702;2023-11-21T08:20:33;33.70;;;18.17;;
45620;SDS011;31345;51.522;10.702;2023-11-21T08:23:02;31.27;;;16.95;;
45620;SDS011;31345;51.522;10.702;2023-11-21T08:25:31;42.45;;;19.02;;
45620;SDS011;31345;51.522;10.702;2023-11-21T08:28:05;38.08;;;17.27;;
45620;SDS011;31345;51.522;10.702;2023-11-21T08:30:39;38.00;;;18.65;;
45620;SDS011;31345;51.522;10.702;2023-11-21T08:33:08;39.72;;;18.35;;
45620;SDS011;31345;51.522;10.702;2023-11-21T08:35:37;41.95;;;19.13;;
45620;SDS011;31345;51.522;10.702;2023-11-21T08:38:09;40.60;;;19.23;;
45620;SDS011;31345;51.522;10.702;2023-11-21T08:40:38;39.15;;;18.35;;
45620;SDS011;31345;51.522;10.702;2023-11-21T08:43:05;42.65;;;17.60;;
45620;SDS011;31345;51.522;10.702;2023-11-21T08:45:34;42.55;;;17.98;;
45620;SDS011;31345;51.522;10.702;2023-11-21T08:48:08;35.20;;;17.50;;
45620;SDS011;31345;51.522;10.702;2023-11-21T08:50:42;36.30;;;17.40;;
45620;SDS011;31345;51.522;10.702;2023-11-21T08:53:10;40.80;;;17.40;;
45620;SDS011;31345;51.522;10.702;2023-11-21T08:55:37;37.55;;;15.57;;
45620;SDS011;31345;51.522;10.702;2023-11-21T08:58:05;32.53;;;16.92;;
45620;SDS011;31345;51.522;10.702;2023-11-21T09:00:33;33.28;;;16.02;;
45620;SDS011;31345;51.522;10.702;2023-11-21T09:03:01;34.53;;;16.77;;
45620;SDS011;31345;51.522;10.702;2023-11-21T09:05:30;36.10;;;16.13;;
45620;SDS011;31345;51.522;10.702;2023-11-21T09:07:58;27.73;;;14.25;;
45620;SDS011;31345;51.522;10.702;2023-11-21T09:10:25;30.08;;;15.32;;
45620;SDS011;31345;51.522;10.702;2023-11-21T09:12:54;32.55;;;16.27;;
45620;SDS011;31345;51.522;10.702;2023-11-21T09:15:27;34.72;;;15.80;;
45620;SDS011;31345;51.522;10.702;2023-11-21T09:17:54;33.20;;;15.80;;
45620;SDS011;31345;51.522;10.702;2023-11-21T09:20:27;32.50;;;16.00;;
45620;SDS011;31345;51.522;10.702;2023-11-21T09:23:01;31.70;;;14.90;;
45620;SDS011;31345;51.522;10.702;2023-11-21T09:25:33;30.30;;;15.18;;
45620;SDS011;31345;51.522;10.702;2023-11-21T09:28:06;34.00;;;17.05;;
45620;SDS011;31345;51.522;10.702;2023-11-21T09:30:34;36.17;;;17.17;;
45620;SDS011;31345;51.522;10.702;2023-11-21T09:33:02;37.40;;;17.10;;
45620;SDS011;31345;51.522;10.702;2023-11-21T09:35:38;32.00;;;16.60;;
45620;SDS011;31345;51.522;10.702;2023-11-21T09:38:07;38.13;;;17.88;;
45620;SDS011;31345;51.522;10.702;2023-11-21T09:40:36;32.97;;;17.08;;
45620;SDS011;31345;51.522;10.702;2023-11-21T09:43:12;37.58;;;16.52;;
45620;SDS011;31345;51.522;10.702;2023-11-21T09:45:51;35.28;;;15.88;;
45620;SDS011;31345;51.522;10.702;2023-11-21T09:48:29;34.95;;;16.95;;
45620;SDS011;31345;51.522;10.702;2023-11-21T09:51:03;34.53;;;16.70;;
45620;SDS011;31345;51.522;10.702;2023-11-21T09:53:33;36.38;;;17.35;;
45620;SDS011;31345;51.522;10.702;2023-11-21T09:56:02;36.08;;;17.92;;
45620;SDS011;31345;51.522;10.702;2023-11-21T09:58:36;36.15;;;18.23;;
45620;SDS011;31345;51.522;10.702;2023-11-21T10:01:09;40.17;;;18.00;;
45620;SDS011;31345;51.522;10.702;2023-11-21T10:03:44;36.63;;;17.92;;
45620;SDS011;31345;51.522;10.702;2023-11-21T10:06:17;37.72;;;18.73;;
45620;SDS011;31345;51.522;10.702;2023-11-21T10:08:51;40.17;;;19.00;;
45620;SDS011;31345;51.522;10.702;2023-11-21T10:11:22;35.38;;;17.77;;
45620;SDS011;31345;51.522;10.702;2023-11-21T10:13:52;40.72;;;18.75;;
45620;SDS011;31345;51.522;10.702;2023-11-21T10:16:25;36.70;;;18.55;;
45620;SDS011;31345;51.522;10.702;2023-11-21T10:18:54;33.95;;;17.65;;
45620;SDS011;31345;51.522;10.702;2023-11-21T10:21:25;35.03;;;16.70;;
45620;SDS011;31345;51.522;10.702;2023-11-21T10:23:55;30.67;;;15.90;;
45620;SDS011;31345;51.522;10.702;2023-11-21T10:26:23;33.70;;;16.60;;
45620;SDS011;31345;51.522;10.702;2023-11-21T10:28:55;27.17;;;15.02;;
45620;SDS011;31345;51.522;10.702;2023-11-21T10:31:24;26.15;;;13.45;;
45620;SDS011;31345;51.522;10.702;2023-11-21T10:33:53;26.90;;;13.52;;
45620;SDS011;31345;51.522;10.702;2023-11-21T10:36:27;26.52;;;13.70;;
45620;SDS011;31345;51.522;10.702;2023-11-21T10:39:02;24.25;;;12.93;;
45620;SDS011;31345;51.522;10.702;2023-11-21T10:41:35;30.25;;;13.93;;
45620;SDS011;31345;51.522;10.702;2023-11-21T10:44:03;30.35;;;13.80;;
45620;SDS011;31345;51.522;10.702;2023-11-21T10:46:33;25.80;;;14.15;;
45620;SDS011;31345;51.522;10.702;2023-11-21T10:49:06;25.33;;;13.82;;
45620;SDS011;31345;51.522;10.702;2023-11-21T10:51:42;24.95;;;13.30;;
45620;SDS011;31345;51.522;10.702;2023-11-21T10:54:12;21.05;;;10.75;;
45620;SDS011;31345;51.522;10.702;2023-11-21T10:56:45;14.52;;;8.30;;
45620;SDS011;31345;51.522;10.702;2023-11-21T10:59:17;8.93;;;4.55;;
45620;SDS011;31345;51.522;10.702;2023-11-21T11:01:47;9.43;;;2.17;;
45620;SDS011;31345;51.522;10.702;2023-11-21T11:04:16;2.13;;;1.00;;
45620;SDS011;31345;51.522;10.702;2023-11-21T11:06:45;1.77;;;1.02;;
45620;SDS011;31345;51.522;10.702;2023-11-21T11:09:19;1.33;;;0.70;;
45620;SDS011;31345;51.522;10.702;2023-11-21T11:11:47;1.25;;;0.80;;
45620;SDS011;31345;51.522;10.702;2023-11-21T11:14:15;2.40;;;0.80;;
45620;SDS011;31345;51.522;10.702;2023-11-21T11:16:45;1.25;;;0.75;;
45620;SDS011;31345;51.522;10.702;2023-11-21T11:19:17;1.30;;;0.80;;
45620;SDS011;31345;51.522;10.702;2023-11-21T11:21:53;1.30;;;0.80;;
45620;SDS011;31345;51.522;10.702;2023-11-21T11:24:49;1.00;;;0.77;;
45620;SDS011;31345;51.522;10.702;2023-11-21T11:27:37;2.03;;;1.00;;
45620;SDS011;31345;51.522;10.702;2023-11-21T11:30:19;1.50;;;0.85;;
45620;SDS011;31345;51.522;10.702;2023-11-21T11:33:10;1.92;;;1.00;;
45620;SDS011;31345;51.522;10.702;2023-11-21T11:36:02;1.48;;;0.93;;
45620;SDS011;31345;51.522;10.702;2023-11-21T11:38:38;1.65;;;1.20;;
45620;SDS011;31345;51.522;10.702;2023-11-21T11:41:12;1.55;;;1.02;;
45620;SDS011;31345;51.522;10.702;2023-11-21T11:43:45;3.35;;;1.20;;
45620;SDS011;31345;51.522;10.702;2023-11-21T11:46:18;1.45;;;1.00;;
45620;SDS011;31345;51.522;10.702;2023-11-21T11:48:47;1.15;;;0.90;;
45620;SDS011;31345;51.522;10.702;2023-11-21T11:51:15;2.95;;;1.35;;
45620;SDS011;31345;51.522;10.702;2023-11-21T11:53:45;1.83;;;1.33;;
45620;SDS011;31345;51.522;10.702;2023-11-21T11:56:25;3.08;;;1.70;;
45620;SDS011;31345;51.522;10.702;2023-11-21T11:58:55;3.47;;;1.60;;
45620;SDS011;31345;51.522;10.702;2023-11-21T12:01:28;2.80;;;1.88;;
45620;SDS011;31345;51.522;10.702;2023-11-21T12:06:59;4.80;;;2.80;;
45620;SDS011;31345;51.522;10.702;2023-11-21T12:09:33;4.38;;;2.75;;
45620;SDS011;31345;51.522;10.702;2023-11-21T12:12:03;5.15;;;3.20;;
45620;SDS011;31345;51.522;10.702;2023-11-21T12:14:37;5.47;;;3.65;;
45620;SDS011;31345;51.522;10.702;2023-11-21T12:17:10;6.13;;;4.00;;
45620;SDS011;31345;51.522;10.702;2023-11-21T12:19:42;7.18;;;4.55;;
45620;SDS011;31345;51.522;10.702;2023-11-21T12:22:10;6.05;;;4.53;;
45620;SDS011;31345;51.522;10.702;2023-11-21T12:24:38;6.18;;;4.40;;
45620;SDS011;31345;51.522;10.702;2023-11-21T12:27:12;6.90;;;4.50;;
45620;SDS011;31345;51.522;10.702;2023-11-21T12:29:45;7.82;;;4.55;;
45620;SDS011;31345;51.522;10.702;2023-11-21T12:32:13;6.25;;;4.30;;
45620;SDS011;31345;51.522;10.702;2023-11-21T12:34:41;9.23;;;5.53;;
45620;SDS011;31345;51.522;10.702;2023-11-21T12:37:13;8.50;;;6.15;;
45620;SDS011;31345;51.522;10.702;2023-11-21T12:39:40;9.98;;;6.55;;
45620;SDS011;31345;51.522;10.702;2023-11-21T12:42:14;9.20;;;6.78;;
45620;SDS011;31345;51.522;10.702;2023-11-21T12:44:47;10.52;;;7.53;;
45620;SDS011;31345;51.522;10.702;2023-11-21T12:47:16;10.77;;;8.10;;
45620;SDS011;31345;51.522;10.702;2023-11-21T12:49:44;11.98;;;8.38;;
45620;SDS011;31345;51.522;10.702;2023-11-21T12:52:17;13.02;;;7.97;;
45620;SDS011;31345;51.522;10.702;2023-11-21T12:54:45;11.30;;;8.60;;
45620;SDS011;31345;51.522;10.702;2023-11-21T12:57:16;10.90;;;8.15;;
45620;SDS011;31345;51.522;10.702;2023-11-21T12:59:45;12.05;;;8.45;;
45620;SDS011;31345;51.522;10.702;2023-11-21T13:02:17;13.20;;;8.75;;
45620;SDS011;31345;51.522;10.702;2023-11-21T13:04:51;11.95;;;8.38;;
45620;SDS011;31345;51.522;10.702;2023-11-21T13:07:20;11.32;;;7.53;;
45620;SDS011;31345;51.522;10.702;2023-11-21T13:09:51;13.10;;;8.70;;
45620;SDS011;31345;51.522;10.702;2023-11-21T13:12:25;11.02;;;7.60;;
45620;SDS011;31345;51.522;10.702;2023-11-21T13:14:58;13.15;;;6.90;;
45620;SDS011;31345;51.522;10.702;2023-11-21T13:17:32;10.93;;;7.43;;
45620;SDS011;31345;51.522;10.702;2023-11-21T13:20:00;11.27;;;7.07;;
45620;SDS011;31345;51.522;10.702;2023-11-21T13:22:37;10.68;;;7.03;;
45620;SDS011;31345;51.522;10.702;2023-11-21T13:25:09;10.77;;;7.05;;
45620;SDS011;31345;51.522;10.702;2023-11-21T13:27:38;11.88;;;6.82;;
45620;SDS011;31345;51.522;10.702;2023-11-21T13:30:12;10.13;;;6.93;;
45620;SDS011;31345;51.522;10.702;2023-11-21T13:32:47;8.82;;;6.47;;
45620;SDS011;31345;51.522;10.702;2023-11-21T13:35:22;11.87;;;6.67;;
45620;SDS011;31345;51.522;10.702;2023-11-21T13:38:03;12.77;;;6.97;;
45620;SDS011;31345;51.522;10.702;2023-11-21T13:40:38;11.17;;;6.87;;
45620;SDS011;31345;51.522;10.702;2023-11-21T13:43:15;8.25;;;6.10;;
45620;SDS011;31345;51.522;10.702;2023-11-21T13:45:52;11.10;;;6.60;;
45620;SDS011;31345;51.522;10.702;2023-11-21T13:48:30;9.73;;;6.67;;
45620;SDS011;31345;51.522;10.702;2023-11-21T13:51:11;9.90;;;6.35;;
45620;SDS011;31345;51.522;10.702;2023-11-21T13:53:48;8.55;;;6.07;;
45620;SDS011;31345;51.522;10.702;2023-11-21T13:56:23;9.20;;;5.40;;
45620;SDS011;31345;51.522;10.702;2023-11-21T13:58:58;8.90;;;6.32;;
45620;SDS011;31345;51.522;10.702;2023-11-21T14:01:40;9.90;;;5.93;;
45620;SDS011;31345;51.522;10.702;2023-11-21T14:04:29;10.00;;;6.10;;
45620;SDS011;31345;51.522;10.702;2023-11-21T14:07:17;10.43;;;6.80;;
45620;SDS011;31345;51.522;10.702;2023-11-21T14:09:57;10.67;;;6.73;;
45620;SDS011;31345;51.522;10.702;2023-11-21T14:12:25;9.35;;;6.10;;
45620;SDS011;31345;51.522;10.702;2023-11-21T14:14:59;9.27;;;6.68;;
45620;SDS011;31345;51.522;10.702;2023-11-21T14:17:27;9.40;;;6.40;;
45620;SDS011;31345;51.522;10.702;2023-11-21T14:19:55;10.47;;;6.80;;
45620;SDS011;31345;51.522;10.702;2023-11-21T14:22:22;9.77;;;6.60;;
45620;SDS011;31345;51.522;10.702;2023-11-21T14:24:56;14.50;;;6.67;;
45620;SDS011;31345;51.522;10.702;2023-11-21T14:27:30;9.32;;;6.47;;
45620;SDS011;31345;51.522;10.702;2023-11-21T14:30:06;10.25;;;6.35;;
45620;SDS011;31345;51.522;10.702;2023-11-21T14:32:39;10.35;;;6.32;;
45620;SDS011;31345;51.522;10.702;2023-11-21T14:35:13;9.30;;;6.15;;
45620;SDS011;31345;51.522;10.702;2023-11-21T14:37:40;9.35;;;6.82;;
45620;SDS011;31345;51.522;10.702;2023-11-21T14:40:09;9.98;;;7.18;;
45620;SDS011;31345;51.522;10.702;2023-11-21T14:42:42;9.52;;;7.10;;
45620;SDS011;31345;51.522;10.702;2023-11-21T14:45:19;9.95;;;6.97;;
45620;SDS011;31345;51.522;10.702;2023-11-21T14:47:49;9.30;;;6.85;;
45620;SDS011;31345;51.522;10.702;2023-11-21T14:50:24;13.73;;;7.78;;